sensor_id;sensor_type;location;lat;lon;timestamp;P1;durP1;ratioP1;P2;durP2;ratioP2
18364;SDS011;9309;52.126;11.616;2023-03-15T00:00:05;10.03;;;3.40;;
18364;SDS011;9309;52.126;11.616;2023-03-15T00:02:34;11.53;;;3.20;;
18364;SDS011;9309;52.126;11.616;2023-03-15T00:05:01;11.97;;;3.33;;
18364;SDS011;9309;52.126;11.616;2023-03-15T00:07:28;5.43;;;3.30;;
18364;SDS011;9309;52.126;11.616;2023-03-15T00:09:55;8.53;;;3.50;;
18364;SDS011;9309;52.126;11.616;2023-03-15T00:12:22;7.30;;;3.43;;
18364;SDS011;9309;52.126;11.616;2023-03-15T00:14:50;11.90;;;3.73;;
18364;SDS011;9309;52.126;11.616;2023-03-15T00:17:17;15.33;;;3.83;;
18364;SDS011;9309;52.126;11.616;2023-03-15T00:19:43;10.87;;;3.33;;
18364;SDS011;9309;52.126;11.616;2023-03-15T00:22:12;4.77;;;3.10;;
18364;SDS011;9309;52.126;11.616;2023-03-15T00:24:38;10.13;;;3.53;;
18364;SDS011;9309;52.126;11.616;2023-03-15T00:27:05;14.50;;;3.60;;
18364;SDS011;9309;52.126;11.616;2023-03-15T00:29:32;10.30;;;3.63;;
18364;SDS011;9309;52.126;11.616;2023-03-15T00:32:00;4.77;;;3.47;;
18364;SDS011;9309;52.126;11.616;2023-03-15T00:34:26;6.23;;;2.97;;
18364;SDS011;9309;52.126;11.616;2023-03-15T00:36:53;9.87;;;3.40;;
18364;SDS011;9309;52.126;11.616;2023-03-15T00:39:20;16.17;;;3.93;;
18364;SDS011;9309;52.126;11.616;2023-03-15T00:41:49;9.63;;;3.20;;
18364;SDS011;9309;52.126;11.616;2023-03-15T00:44:16;12.87;;;3.57;;
18364;SDS011;9309;52.126;11.616;2023-03-15T00:46:43;13.87;;;3.50;;
18364;SDS011;9309;52.126;11.616;2023-03-15T00:49:11;9.27;;;3.40;;
18364;SDS011;9309;52.126;11.616;2023-03-15T00:51:37;11.73;;;3.53;;
18364;SDS011;9309;52.126;11.616;2023-03-15T00:54:04;18.33;;;3.63;;
18364;SDS011;9309;52.126;11.616;2023-03-15T00:56:31;14.20;;;3.27;;
18364;SDS011;9309;52.126;11.616;2023-03-15T00:58:58;14.30;;;3.07;;
18364;SDS011;9309;52.126;11.616;2023-03-15T01:01:25;9.87;;;3.07;;
18364;SDS011;9309;52.126;11.616;2023-03-15T01:03:53;7.77;;;4.07;;
18364;SDS011;9309;52.126;11.616;2023-03-15T01:06:22;5.33;;;3.10;;
18364;SDS011;9309;52.126;11.616;2023-03-15T01:08:49;10.97;;;3.30;;
18364;SDS011;9309;52.126;11.616;2023-03-15T01:11:19;7.60;;;3.17;;
18364;SDS011;9309;52.126;11.616;2023-03-15T01:13:48;12.57;;;3.60;;
18364;SDS011;9309;52.126;11.616;2023-03-15T01:16:16;22.97;;;3.13;;
18364;SDS011;9309;52.126;11.616;2023-03-15T01:18:43;7.50;;;3.43;;
18364;SDS011;9309;52.126;11.616;2023-03-15T01:21:11;10.23;;;3.37;;
18364;SDS011;9309;52.126;11.616;2023-03-15T01:23:40;10.17;;;3.27;;
18364;SDS011;9309;52.126;11.616;2023-03-15T01:26:08;12.17;;;3.83;;
18364;SDS011;9309;52.126;11.616;2023-03-15T01:28:36;5.53;;;2.97;;
18364;SDS011;9309;52.126;11.616;2023-03-15T01:31:03;11.83;;;3.13;;
18364;SDS011;9309;52.126;11.616;2023-03-15T01:33:30;11.07;;;2.87;;
18364;SDS011;9309;52.126;11.616;2023-03-15T01:35:57;14.33;;;3.13;;
18364;SDS011;9309;52.126;11.616;2023-03-15T01:38:25;11.70;;;3.33;;
18364;SDS011;9309;52.126;11.616;2023-03-15T01:40:53;11.57;;;3.23;;
18364;SDS011;9309;52.126;11.616;2023-03-15T01:43:21;14.87;;;3.27;;
18364;SDS011;9309;52.126;11.616;2023-03-15T01:48:44;7.17;;;3.20;;
18364;SDS011;9309;52.126;11.616;2023-03-15T01:51:21;12.67;;;2.93;;
18364;SDS011;9309;52.126;11.616;2023-03-15T01:53:51;3.07;;;2.83;;
18364;SDS011;9309;52.126;11.616;2023-03-15T01:56:25;13.90;;;3.63;;
18364;SDS011;9309;52.126;11.616;2023-03-15T01:58:54;11.80;;;3.23;;
18364;SDS011;9309;52.126;11.616;2023-03-15T02:01:23;5.73;;;3.00;;
18364;SDS011;9309;52.126;11.616;2023-03-15T02:03:51;7.77;;;2.90;;
18364;SDS011;9309;52.126;11.616;2023-03-15T02:06:29;10.77;;;3.30;;
18364;SDS011;9309;52.126;11.616;2023-03-15T02:09:00;10.17;;;3.87;;
18364;SDS011;9309;52.126;11.616;2023-03-15T02:11:34;9.47;;;2.73;;
18364;SDS011;9309;52.126;11.616;2023-03-15T02:14:03;13.07;;;3.03;;
18364;SDS011;9309;52.126;11.616;2023-03-15T02:16:33;8.40;;;4.03;;
18364;SDS011;9309;52.126;11.616;2023-03-15T02:19:05;10.37;;;2.77;;
18364;SDS011;9309;52.126;11.616;2023-03-15T02:21:36;9.63;;;3.07;;
18364;SDS011;9309;52.126;11.616;2023-03-15T02:24:13;8.53;;;3.80;;
18364;SDS011;9309;52.126;11.616;2023-03-15T02:26:49;5.83;;;3.17;;
18364;SDS011;9309;52.126;11.616;2023-03-15T02:29:19;8.33;;;2.83;;
18364;SDS011;9309;52.126;11.616;2023-03-15T02:31:48;9.97;;;3.60;;
18364;SDS011;9309;52.126;11.616;2023-03-15T02:34:15;6.73;;;2.97;;
18364;SDS011;9309;52.126;11.616;2023-03-15T02:36:41;8.47;;;3.33;;
18364;SDS011;9309;52.126;11.616;2023-03-15T02:39:14;5.30;;;3.07;;
18364;SDS011;9309;52.126;11.616;2023-03-15T02:41:44;7.70;;;3.07;;
18364;SDS011;9309;52.126;11.616;2023-03-15T02:44:15;4.33;;;3.03;;
18364;SDS011;9309;52.126;11.616;2023-03-15T02:46:46;8.57;;;3.13;;
18364;SDS011;9309;52.126;11.616;2023-03-15T02:49:19;8.53;;;3.40;;
18364;SDS011;9309;52.126;11.616;2023-03-15T02:51:48;6.87;;;2.77;;
18364;SDS011;9309;52.126;11.616;2023-03-15T02:54:15;10.07;;;3.00;;
18364;SDS011;9309;52.126;11.616;2023-03-15T02:56:42;5.13;;;2.90;;
18364;SDS011;9309;52.126;11.616;2023-03-15T02:59:09;9.83;;;3.13;;
18364;SDS011;9309;52.126;11.616;2023-03-15T03:01:37;4.40;;;2.80;;
18364;SDS011;9309;52.126;11.616;2023-03-15T03:04:05;8.93;;;2.70;;
18364;SDS011;9309;52.126;11.616;2023-03-15T03:06:32;5.73;;;2.90;;
18364;SDS011;9309;52.126;11.616;2023-03-15T03:09:00;10.23;;;3.57;;
18364;SDS011;9309;52.126;11.616;2023-03-15T03:11:28;10.07;;;3.00;;
18364;SDS011;9309;52.126;11.616;2023-03-15T03:13:55;9.43;;;3.30;;
18364;SDS011;9309;52.126;11.616;2023-03-15T03:16:22;4.73;;;3.10;;
18364;SDS011;9309;52.126;11.616;2023-03-15T03:18:50;8.33;;;3.10;;
18364;SDS011;9309;52.126;11.616;2023-03-15T03:21:18;12.37;;;3.83;;
18364;SDS011;9309;52.126;11.616;2023-03-15T03:23:45;6.77;;;2.90;;
18364;SDS011;9309;52.126;11.616;2023-03-15T03:26:12;8.47;;;2.93;;
18364;SDS011;9309;52.126;11.616;2023-03-15T03:28:42;12.50;;;3.10;;
18364;SDS011;9309;52.126;11.616;2023-03-15T03:31:17;6.73;;;3.00;;
18364;SDS011;9309;52.126;11.616;2023-03-15T03:33:46;12.20;;;3.03;;
18364;SDS011;9309;52.126;11.616;2023-03-15T03:36:13;10.33;;;3.10;;
18364;SDS011;9309;52.126;11.616;2023-03-15T03:38:41;11.37;;;3.00;;
18364;SDS011;9309;52.126;11.616;2023-03-15T03:41:10;13.30;;;3.37;;
18364;SDS011;9309;52.126;11.616;2023-03-15T03:43:37;10.17;;;3.43;;
18364;SDS011;9309;52.126;11.616;2023-03-15T03:46:05;12.57;;;3.43;;
18364;SDS011;9309;52.126;11.616;2023-03-15T03:48:35;6.20;;;2.90;;
18364;SDS011;9309;52.126;11.616;2023-03-15T03:51:02;5.83;;;3.03;;
18364;SDS011;9309;52.126;11.616;2023-03-15T03:53:29;8.20;;;3.40;;
18364;SDS011;9309;52.126;11.616;2023-03-15T03:55:57;9.33;;;3.43;;
18364;SDS011;9309;52.126;11.616;2023-03-15T03:58:28;9.23;;;2.80;;
18364;SDS011;9309;52.126;11.616;2023-03-15T04:00:59;10.53;;;3.17;;
18364;SDS011;9309;52.126;11.616;2023-03-15T04:03:30;6.23;;;3.00;;
18364;SDS011;9309;52.126;11.616;2023-03-15T04:06:08;10.60;;;3.17;;
18364;SDS011;9309;52.126;11.616;2023-03-15T04:08:39;7.23;;;3.47;;
18364;SDS011;9309;52.126;11.616;2023-03-15T04:11:10;11.93;;;3.17;;
18364;SDS011;9309;52.126;11.616;2023-03-15T04:13:41;10.17;;;3.83;;
18364;SDS011;9309;52.126;11.616;2023-03-15T04:16:08;16.07;;;4.20;;
18364;SDS011;9309;52.126;11.616;2023-03-15T04:18:51;7.87;;;3.13;;
18364;SDS011;9309;52.126;11.616;2023-03-15T04:21:20;6.53;;;3.27;;
18364;SDS011;9309;52.126;11.616;2023-03-15T04:23:49;10.77;;;2.97;;
18364;SDS011;9309;52.126;11.616;2023-03-15T04:26:28;11.93;;;3.17;;
18364;SDS011;9309;52.126;11.616;2023-03-15T04:29:15;5.13;;;2.73;;
18364;SDS011;9309;52.126;11.616;2023-03-15T04:32:12;4.23;;;2.90;;
18364;SDS011;9309;52.126;11.616;2023-03-15T04:34:47;6.43;;;3.13;;
18364;SDS011;9309;52.126;11.616;2023-03-15T04:37:28;5.47;;;3.00;;
18364;SDS011;9309;52.126;11.616;2023-03-15T04:40:14;13.40;;;3.13;;
18364;SDS011;9309;52.126;11.616;2023-03-15T04:42:55;4.03;;;2.80;;
18364;SDS011;9309;52.126;11.616;2023-03-15T04:45:32;3.03;;;2.57;;
18364;SDS011;9309;52.126;11.616;2023-03-15T04:48:34;5.10;;;3.13;;
18364;SDS011;9309;52.126;11.616;2023-03-15T04:51:25;5.27;;;2.97;;
18364;SDS011;9309;52.126;11.616;2023-03-15T04:54:11;14.43;;;3.93;;
18364;SDS011;9309;52.126;11.616;2023-03-15T04:56:43;13.33;;;3.47;;
18364;SDS011;9309;52.126;11.616;2023-03-15T04:59:30;7.03;;;3.20;;
18364;SDS011;9309;52.126;11.616;2023-03-15T05:02:23;12.50;;;3.70;;
18364;SDS011;9309;52.126;11.616;2023-03-15T05:05:02;10.43;;;3.47;;
18364;SDS011;9309;52.126;11.616;2023-03-15T05:07:52;3.83;;;2.60;;
18364;SDS011;9309;52.126;11.616;2023-03-15T05:10:45;5.57;;;2.97;;
18364;SDS011;9309;52.126;11.616;2023-03-15T05:13:31;10.80;;;3.10;;
18364;SDS011;9309;52.126;11.616;2023-03-15T05:15:59;9.27;;;3.13;;
18364;SDS011;9309;52.126;11.616;2023-03-15T05:18:40;6.47;;;3.30;;
18364;SDS011;9309;52.126;11.616;2023-03-15T05:21:24;10.70;;;3.20;;
18364;SDS011;9309;52.126;11.616;2023-03-15T05:24:00;19.30;;;3.53;;
18364;SDS011;9309;52.126;11.616;2023-03-15T05:26:36;6.77;;;2.97;;
18364;SDS011;9309;52.126;11.616;2023-03-15T05:29:32;11.87;;;3.73;;
18364;SDS011;9309;52.126;11.616;2023-03-15T05:32:14;14.80;;;3.37;;
18364;SDS011;9309;52.126;11.616;2023-03-15T05:35:04;10.47;;;3.27;;
18364;SDS011;9309;52.126;11.616;2023-03-15T05:38:01;6.03;;;3.67;;
18364;SDS011;9309;52.126;11.616;2023-03-15T05:40:44;19.83;;;4.03;;
18364;SDS011;9309;52.126;11.616;2023-03-15T05:43:31;11.37;;;3.80;;
18364;SDS011;9309;52.126;11.616;2023-03-15T05:46:15;11.90;;;3.50;;
18364;SDS011;9309;52.126;11.616;2023-03-15T05:49:01;12.20;;;3.83;;
18364;SDS011;9309;52.126;11.616;2023-03-15T05:51:36;8.33;;;3.67;;
18364;SDS011;9309;52.126;11.616;2023-03-15T05:54:21;10.87;;;3.57;;
18364;SDS011;9309;52.126;11.616;2023-03-15T05:57:11;8.00;;;3.67;;
18364;SDS011;9309;52.126;11.616;2023-03-15T05:59:52;12.40;;;3.80;;
18364;SDS011;9309;52.126;11.616;2023-03-15T06:02:38;13.47;;;4.10;;
18364;SDS011;9309;52.126;11.616;2023-03-15T06:05:22;11.43;;;3.70;;
18364;SDS011;9309;52.126;11.616;2023-03-15T06:07:49;7.27;;;4.17;;
18364;SDS011;9309;52.126;11.616;2023-03-15T06:10:17;12.13;;;3.90;;
18364;SDS011;9309;52.126;11.616;2023-03-15T06:12:44;8.63;;;4.20;;
18364;SDS011;9309;52.126;11.616;2023-03-15T06:15:10;11.80;;;3.87;;
18364;SDS011;9309;52.126;11.616;2023-03-15T06:17:37;9.40;;;4.93;;
18364;SDS011;9309;52.126;11.616;2023-03-15T06:20:04;14.27;;;4.17;;
18364;SDS011;9309;52.126;11.616;2023-03-15T06:22:33;9.10;;;3.83;;
18364;SDS011;9309;52.126;11.616;2023-03-15T06:25:07;17.97;;;4.30;;
18364;SDS011;9309;52.126;11.616;2023-03-15T06:27:35;8.23;;;4.13;;
18364;SDS011;9309;52.126;11.616;2023-03-15T06:30:03;10.13;;;4.30;;
18364;SDS011;9309;52.126;11.616;2023-03-15T06:32:30;10.03;;;3.97;;
18364;SDS011;9309;52.126;11.616;2023-03-15T06:34:58;15.13;;;5.10;;
18364;SDS011;9309;52.126;11.616;2023-03-15T06:37:26;8.77;;;4.30;;
18364;SDS011;9309;52.126;11.616;2023-03-15T06:39:54;19.70;;;4.60;;
18364;SDS011;9309;52.126;11.616;2023-03-15T06:42:21;13.50;;;4.13;;
18364;SDS011;9309;52.126;11.616;2023-03-15T06:44:48;11.70;;;4.30;;
18364;SDS011;9309;52.126;11.616;2023-03-15T06:47:15;9.83;;;4.93;;
18364;SDS011;9309;52.126;11.616;2023-03-15T06:49:41;14.77;;;4.50;;
18364;SDS011;9309;52.126;11.616;2023-03-15T06:52:10;12.27;;;4.60;;
18364;SDS011;9309;52.126;11.616;2023-03-15T06:54:37;12.57;;;5.03;;
18364;SDS011;9309;52.126;11.616;2023-03-15T06:57:05;9.07;;;5.10;;
18364;SDS011;9309;52.126;11.616;2023-03-15T06:59:31;14.73;;;4.43;;
18364;SDS011;9309;52.126;11.616;2023-03-15T07:01:58;7.37;;;4.60;;
18364;SDS011;9309;52.126;11.616;2023-03-15T07:04:25;25.10;;;8.73;;
18364;SDS011;9309;52.126;11.616;2023-03-15T07:06:52;16.40;;;5.63;;
18364;SDS011;9309;52.126;11.616;2023-03-15T07:09:19;14.73;;;4.63;;
18364;SDS011;9309;52.126;11.616;2023-03-15T07:11:46;13.43;;;5.23;;
18364;SDS011;9309;52.126;11.616;2023-03-15T07:14:14;12.90;;;5.43;;
18364;SDS011;9309;52.126;11.616;2023-03-15T07:16:40;8.83;;;4.70;;
18364;SDS011;9309;52.126;11.616;2023-03-15T07:19:07;9.87;;;4.50;;
18364;SDS011;9309;52.126;11.616;2023-03-15T07:21:34;10.67;;;5.10;;
18364;SDS011;9309;52.126;11.616;2023-03-15T07:24:01;8.03;;;5.00;;
18364;SDS011;9309;52.126;11.616;2023-03-15T07:26:27;8.70;;;4.70;;
18364;SDS011;9309;52.126;11.616;2023-03-15T07:28:54;10.60;;;4.87;;
18364;SDS011;9309;52.126;11.616;2023-03-15T07:31:22;11.43;;;4.47;;
18364;SDS011;9309;52.126;11.616;2023-03-15T07:33:49;9.37;;;4.50;;
18364;SDS011;9309;52.126;11.616;2023-03-15T07:36:15;8.93;;;4.80;;
18364;SDS011;9309;52.126;11.616;2023-03-15T07:38:42;13.60;;;5.63;;
18364;SDS011;9309;52.126;11.616;2023-03-15T07:41:09;13.60;;;5.00;;
18364;SDS011;9309;52.126;11.616;2023-03-15T07:43:39;15.03;;;4.90;;
18364;SDS011;9309;52.126;11.616;2023-03-15T07:46:12;23.60;;;6.10;;
18364;SDS011;9309;52.126;11.616;2023-03-15T07:48:40;9.60;;;5.97;;
18364;SDS011;9309;52.126;11.616;2023-03-15T07:51:07;10.60;;;5.10;;
18364;SDS011;9309;52.126;11.616;2023-03-15T07:53:34;7.60;;;4.97;;
18364;SDS011;9309;52.126;11.616;2023-03-15T07:56:00;13.80;;;5.97;;
18364;SDS011;9309;52.126;11.616;2023-03-15T07:58:27;11.53;;;5.83;;
18364;SDS011;9309;52.126;11.616;2023-03-15T08:00:54;12.77;;;6.37;;
18364;SDS011;9309;52.126;11.616;2023-03-15T08:03:21;19.30;;;5.87;;
18364;SDS011;9309;52.126;11.616;2023-03-15T08:05:49;11.17;;;5.70;;
18364;SDS011;9309;52.126;11.616;2023-03-15T08:08:16;13.83;;;5.73;;
18364;SDS011;9309;52.126;11.616;2023-03-15T08:10:43;9.53;;;6.47;;
18364;SDS011;9309;52.126;11.616;2023-03-15T08:13:10;12.67;;;6.20;;
18364;SDS011;9309;52.126;11.616;2023-03-15T08:15:36;16.57;;;5.97;;
18364;SDS011;9309;52.126;11.616;2023-03-15T08:18:03;13.63;;;6.63;;
18364;SDS011;9309;52.126;11.616;2023-03-15T08:20:31;10.57;;;7.70;;
18364;SDS011;9309;52.126;11.616;2023-03-15T08:22:59;10.37;;;6.47;;
18364;SDS011;9309;52.126;11.616;2023-03-15T08:25:26;9.90;;;6.37;;
18364;SDS011;9309;52.126;11.616;2023-03-15T08:27:53;10.63;;;5.97;;
18364;SDS011;9309;52.126;11.616;2023-03-15T08:30:21;6.80;;;6.10;;
18364;SDS011;9309;52.126;11.616;2023-03-15T08:32:48;11.07;;;5.73;;
18364;SDS011;9309;52.126;11.616;2023-03-15T08:35:16;8.60;;;5.30;;
18364;SDS011;9309;52.126;11.616;2023-03-15T08:37:45;7.33;;;5.20;;
18364;SDS011;9309;52.126;11.616;2023-03-15T08:40:14;25.23;;;7.07;;
18364;SDS011;9309;52.126;11.616;2023-03-15T08:42:43;16.13;;;5.37;;
18364;SDS011;9309;52.126;11.616;2023-03-15T08:45:10;11.23;;;5.17;;
18364;SDS011;9309;52.126;11.616;2023-03-15T08:47:37;7.83;;;5.07;;
18364;SDS011;9309;52.126;11.616;2023-03-15T08:50:04;6.73;;;4.97;;
18364;SDS011;9309;52.126;11.616;2023-03-15T08:52:32;9.73;;;5.67;;
18364;SDS011;9309;52.126;11.616;2023-03-15T08:54:59;11.37;;;4.90;;
18364;SDS011;9309;52.126;11.616;2023-03-15T08:57:27;8.17;;;5.53;;
18364;SDS011;9309;52.126;11.616;2023-03-15T08:59:56;5.87;;;4.90;;
18364;SDS011;9309;52.126;11.616;2023-03-15T09:02:23;9.97;;;5.60;;
18364;SDS011;9309;52.126;11.616;2023-03-15T09:04:50;9.47;;;5.10;;
18364;SDS011;9309;52.126;11.616;2023-03-15T09:07:17;11.23;;;5.37;;
18364;SDS011;9309;52.126;11.616;2023-03-15T09:09:44;10.47;;;5.87;;
18364;SDS011;9309;52.126;11.616;2023-03-15T09:12:13;12.20;;;5.60;;
18364;SDS011;9309;52.126;11.616;2023-03-15T13:18:56;2.63;;;2.00;;
18364;SDS011;9309;52.126;11.616;2023-03-15T13:21:30;2.97;;;2.10;;
18364;SDS011;9309;52.126;11.616;2023-03-15T13:23:59;2.07;;;1.80;;
18364;SDS011;9309;52.126;11.616;2023-03-15T13:26:34;2.03;;;1.80;;
18364;SDS011;9309;52.126;11.616;2023-03-15T13:29:09;4.30;;;1.60;;
18364;SDS011;9309;52.126;11.616;2023-03-15T13:31:42;2.20;;;1.80;;
18364;SDS011;9309;52.126;11.616;2023-03-15T13:34:11;3.53;;;2.30;;
18364;SDS011;9309;52.126;11.616;2023-03-15T13:36:41;1.57;;;1.50;;
18364;SDS011;9309;52.126;11.616;2023-03-15T13:39:10;1.87;;;1.10;;
18364;SDS011;9309;52.126;11.616;2023-03-15T13:41:43;3.05;;;2.35;;
18364;SDS011;9309;52.126;11.616;2023-03-15T13:44:13;8.40;;;2.65;;
18364;SDS011;9309;52.126;11.616;2023-03-15T13:46:44;1.23;;;1.20;;
18364;SDS011;9309;52.126;11.616;2023-03-15T13:49:12;2.72;;;1.58;;
18364;SDS011;9309;52.126;11.616;2023-03-15T13:51:39;4.18;;;2.60;;
18364;SDS011;9309;52.126;11.616;2023-03-15T13:54:07;2.92;;;1.30;;
18364;SDS011;9309;52.126;11.616;2023-03-15T13:56:41;4.05;;;1.25;;
18364;SDS011;9309;52.126;11.616;2023-03-15T13:59:19;3.30;;;1.80;;
18364;SDS011;9309;52.126;11.616;2023-03-15T14:01:48;3.23;;;1.40;;
18364;SDS011;9309;52.126;11.616;2023-03-15T14:04:18;4.53;;;2.57;;
18364;SDS011;9309;52.126;11.616;2023-03-15T14:06:47;5.87;;;1.73;;
18364;SDS011;9309;52.126;11.616;2023-03-15T14:09:19;7.87;;;2.93;;
18364;SDS011;9309;52.126;11.616;2023-03-15T14:11:59;3.40;;;1.80;;
18364;SDS011;9309;52.126;11.616;2023-03-15T14:14:27;2.30;;;1.67;;
18364;SDS011;9309;52.126;11.616;2023-03-15T14:16:57;4.47;;;1.90;;
18364;SDS011;9309;52.126;11.616;2023-03-15T14:19:26;4.07;;;2.40;;
18364;SDS011;9309;52.126;11.616;2023-03-15T14:21:54;5.17;;;1.90;;
18364;SDS011;9309;52.126;11.616;2023-03-15T14:24:24;3.77;;;2.57;;
18364;SDS011;9309;52.126;11.616;2023-03-15T14:26:56;5.20;;;2.30;;
18364;SDS011;9309;52.126;11.616;2023-03-15T14:29:26;4.00;;;2.03;;
18364;SDS011;9309;52.126;11.616;2023-03-15T14:31:58;2.57;;;1.90;;
18364;SDS011;9309;52.126;11.616;2023-03-15T14:34:30;7.53;;;1.90;;
18364;SDS011;9309;52.126;11.616;2023-03-15T14:36:59;1.90;;;1.80;;
18364;SDS011;9309;52.126;11.616;2023-03-15T14:39:30;3.47;;;2.00;;
18364;SDS011;9309;52.126;11.616;2023-03-15T14:42:02;5.17;;;2.13;;
18364;SDS011;9309;52.126;11.616;2023-03-15T14:44:29;4.03;;;2.10;;
18364;SDS011;9309;52.126;11.616;2023-03-15T14:46:57;5.57;;;1.90;;
18364;SDS011;9309;52.126;11.616;2023-03-15T14:49:25;2.83;;;2.03;;
18364;SDS011;9309;52.126;11.616;2023-03-15T14:51:54;8.60;;;2.23;;
18364;SDS011;9309;52.126;11.616;2023-03-15T14:54:25;5.67;;;2.60;;
18364;SDS011;9309;52.126;11.616;2023-03-15T14:56:52;5.97;;;3.00;;
18364;SDS011;9309;52.126;11.616;2023-03-15T14:59:19;4.10;;;1.90;;
18364;SDS011;9309;52.126;11.616;2023-03-15T15:01:47;1.90;;;1.87;;
18364;SDS011;9309;52.126;11.616;2023-03-15T15:04:17;4.30;;;1.93;;
18364;SDS011;9309;52.126;11.616;2023-03-15T15:06:45;2.83;;;2.03;;
18364;SDS011;9309;52.126;11.616;2023-03-15T15:09:16;2.07;;;1.97;;
18364;SDS011;9309;52.126;11.616;2023-03-15T15:11:46;2.57;;;2.40;;
18364;SDS011;9309;52.126;11.616;2023-03-15T15:14:13;4.53;;;2.50;;
18364;SDS011;9309;52.126;11.616;2023-03-15T15:16:40;9.83;;;2.20;;
18364;SDS011;9309;52.126;11.616;2023-03-15T15:19:08;2.33;;;2.07;;
18364;SDS011;9309;52.126;11.616;2023-03-15T15:21:37;5.97;;;2.20;;
18364;SDS011;9309;52.126;11.616;2023-03-15T15:24:05;2.43;;;1.80;;
18364;SDS011;9309;52.126;11.616;2023-03-15T15:26:38;6.80;;;2.10;;
18364;SDS011;9309;52.126;11.616;2023-03-15T15:29:04;1.97;;;1.80;;
18364;SDS011;9309;52.126;11.616;2023-03-15T15:31:31;4.07;;;2.10;;
18364;SDS011;9309;52.126;11.616;2023-03-15T15:33:58;4.00;;;1.70;;
18364;SDS011;9309;52.126;11.616;2023-03-15T15:36:26;5.30;;;1.90;;
18364;SDS011;9309;52.126;11.616;2023-03-15T15:38:57;4.93;;;2.30;;
18364;SDS011;9309;52.126;11.616;2023-03-15T15:41:26;3.13;;;2.10;;
18364;SDS011;9309;52.126;11.616;2023-03-15T15:43:54;3.10;;;2.27;;
18364;SDS011;9309;52.126;11.616;2023-03-15T15:46:21;1.93;;;1.87;;
18364;SDS011;9309;52.126;11.616;2023-03-15T15:48:48;5.03;;;2.00;;
18364;SDS011;9309;52.126;11.616;2023-03-15T15:51:17;5.17;;;2.50;;
18364;SDS011;9309;52.126;11.616;2023-03-15T15:53:53;6.67;;;2.00;;
18364;SDS011;9309;52.126;11.616;2023-03-15T15:56:25;2.40;;;2.20;;
18364;SDS011;9309;52.126;11.616;2023-03-15T15:58:55;3.57;;;2.20;;
18364;SDS011;9309;52.126;11.616;2023-03-15T16:01:23;10.20;;;2.20;;
18364;SDS011;9309;52.126;11.616;2023-03-15T16:03:50;3.97;;;1.90;;
18364;SDS011;9309;52.126;11.616;2023-03-15T16:06:17;2.63;;;2.43;;
18364;SDS011;9309;52.126;11.616;2023-03-15T16:08:45;2.00;;;1.90;;
18364;SDS011;9309;52.126;11.616;2023-03-15T16:11:14;8.60;;;2.23;;
18364;SDS011;9309;52.126;11.616;2023-03-15T16:13:43;3.67;;;2.00;;
18364;SDS011;9309;52.126;11.616;2023-03-15T16:16:11;2.97;;;2.67;;
18364;SDS011;9309;52.126;11.616;2023-03-15T16:18:39;7.10;;;2.10;;
18364;SDS011;9309;52.126;11.616;2023-03-15T16:21:08;5.70;;;1.97;;
18364;SDS011;9309;52.126;11.616;2023-03-15T16:23:44;2.27;;;1.80;;
18364;SDS011;9309;52.126;11.616;2023-03-15T16:26:16;8.03;;;2.47;;
18364;SDS011;9309;52.126;11.616;2023-03-15T16:28:44;11.00;;;2.30;;
18364;SDS011;9309;52.126;11.616;2023-03-15T16:31:15;8.33;;;2.47;;
18364;SDS011;9309;52.126;11.616;2023-03-15T16:33:42;6.37;;;2.50;;
18364;SDS011;9309;52.126;11.616;2023-03-15T16:36:18;4.67;;;2.53;;
18364;SDS011;9309;52.126;11.616;2023-03-15T16:38:47;7.30;;;2.20;;
18364;SDS011;9309;52.126;11.616;2023-03-15T16:41:14;6.43;;;2.17;;
18364;SDS011;9309;52.126;11.616;2023-03-15T16:43:42;3.10;;;2.20;;
18364;SDS011;9309;52.126;11.616;2023-03-15T16:46:11;4.37;;;2.23;;
18364;SDS011;9309;52.126;11.616;2023-03-15T16:48:39;8.13;;;2.67;;
18364;SDS011;9309;52.126;11.616;2023-03-15T16:51:06;4.67;;;2.57;;
18364;SDS011;9309;52.126;11.616;2023-03-15T16:53:36;3.63;;;2.33;;
18364;SDS011;9309;52.126;11.616;2023-03-15T16:56:03;5.97;;;2.57;;
18364;SDS011;9309;52.126;11.616;2023-03-15T16:58:30;7.17;;;2.40;;
18364;SDS011;9309;52.126;11.616;2023-03-15T17:00:58;9.70;;;3.00;;
18364;SDS011;9309;52.126;11.616;2023-03-15T17:03:25;3.80;;;2.20;;
18364;SDS011;9309;52.126;11.616;2023-03-15T17:05:54;4.00;;;2.50;;
18364;SDS011;9309;52.126;11.616;2023-03-15T17:08:22;9.37;;;2.67;;
18364;SDS011;9309;52.126;11.616;2023-03-15T17:14:36;2.67;;;2.53;;
18364;SDS011;9309;52.126;11.616;2023-03-15T17:17:04;12.13;;;2.77;;
18364;SDS011;9309;52.126;11.616;2023-03-15T17:19:31;4.10;;;2.77;;
18364;SDS011;9309;52.126;11.616;2023-03-15T17:21:58;7.93;;;3.00;;
18364;SDS011;9309;52.126;11.616;2023-03-15T17:24:25;2.60;;;2.40;;
18364;SDS011;9309;52.126;11.616;2023-03-15T17:26:52;8.90;;;3.60;;
18364;SDS011;9309;52.126;11.616;2023-03-15T17:29:18;12.37;;;3.47;;
18364;SDS011;9309;52.126;11.616;2023-03-15T17:31:45;8.13;;;3.03;;
18364;SDS011;9309;52.126;11.616;2023-03-15T17:34:14;9.43;;;3.07;;
18364;SDS011;9309;52.126;11.616;2023-03-15T17:36:41;6.43;;;2.80;;
18364;SDS011;9309;52.126;11.616;2023-03-15T17:39:09;7.33;;;2.83;;
18364;SDS011;9309;52.126;11.616;2023-03-15T17:41:40;5.23;;;3.00;;
18364;SDS011;9309;52.126;11.616;2023-03-15T17:44:09;14.13;;;3.60;;
18364;SDS011;9309;52.126;11.616;2023-03-15T17:46:36;5.30;;;2.97;;
18364;SDS011;9309;52.126;11.616;2023-03-15T17:49:03;7.83;;;3.03;;
18364;SDS011;9309;52.126;11.616;2023-03-15T17:51:33;5.07;;;2.90;;
18364;SDS011;9309;52.126;11.616;2023-03-15T17:54:01;5.87;;;3.03;;
18364;SDS011;9309;52.126;11.616;2023-03-15T17:56:37;6.90;;;3.27;;
18364;SDS011;9309;52.126;11.616;2023-03-15T17:59:04;4.17;;;3.33;;
18364;SDS011;9309;52.126;11.616;2023-03-15T18:01:31;10.07;;;4.40;;
18364;SDS011;9309;52.126;11.616;2023-03-15T18:03:59;11.57;;;5.83;;
18364;SDS011;9309;52.126;11.616;2023-03-15T18:06:26;9.30;;;4.90;;
18364;SDS011;9309;52.126;11.616;2023-03-15T18:08:54;5.30;;;3.90;;
18364;SDS011;9309;52.126;11.616;2023-03-15T18:11:21;6.07;;;3.60;;
18364;SDS011;9309;52.126;11.616;2023-03-15T18:13:50;7.03;;;3.27;;
18364;SDS011;9309;52.126;11.616;2023-03-15T18:16:18;11.73;;;3.20;;
18364;SDS011;9309;52.126;11.616;2023-03-15T18:18:44;8.03;;;3.10;;
18364;SDS011;9309;52.126;11.616;2023-03-15T18:21:12;5.17;;;3.10;;
18364;SDS011;9309;52.126;11.616;2023-03-15T18:23:40;7.30;;;3.10;;
18364;SDS011;9309;52.126;11.616;2023-03-15T18:26:08;4.67;;;3.17;;
18364;SDS011;9309;52.126;11.616;2023-03-15T18:28:35;5.33;;;2.80;;
18364;SDS011;9309;52.126;11.616;2023-03-15T18:31:01;5.23;;;3.10;;
18364;SDS011;9309;52.126;11.616;2023-03-15T18:33:28;7.63;;;3.23;;
18364;SDS011;9309;52.126;11.616;2023-03-15T18:35:55;14.83;;;3.63;;
18364;SDS011;9309;52.126;11.616;2023-03-15T18:38:22;4.37;;;3.53;;
18364;SDS011;9309;52.126;11.616;2023-03-15T18:40:48;6.63;;;3.57;;
18364;SDS011;9309;52.126;11.616;2023-03-15T18:43:17;6.97;;;3.07;;
18364;SDS011;9309;52.126;11.616;2023-03-15T18:45:43;5.17;;;3.27;;
18364;SDS011;9309;52.126;11.616;2023-03-15T18:48:10;6.63;;;3.30;;
18364;SDS011;9309;52.126;11.616;2023-03-15T18:50:37;5.90;;;3.20;;
18364;SDS011;9309;52.126;11.616;2023-03-15T18:53:03;8.10;;;3.20;;
18364;SDS011;9309;52.126;11.616;2023-03-15T18:55:30;8.03;;;3.50;;
18364;SDS011;9309;52.126;11.616;2023-03-15T18:57:57;5.97;;;3.10;;
18364;SDS011;9309;52.126;11.616;2023-03-15T19:00:25;5.77;;;2.93;;
18364;SDS011;9309;52.126;11.616;2023-03-15T19:02:56;6.30;;;2.80;;
18364;SDS011;9309;52.126;11.616;2023-03-15T19:05:24;4.07;;;2.70;;
18364;SDS011;9309;52.126;11.616;2023-03-15T19:07:52;16.37;;;3.37;;
18364;SDS011;9309;52.126;11.616;2023-03-15T19:10:19;5.20;;;3.23;;